sensor_id;sensor_type;location;lat;lon;timestamp;P1;durP1;ratioP1;P2;durP2;ratioP2
43998;SDS011;51319;52.162;5.302;2023-10-08T00:00:48;34.15;;;7.95;;
43998;SDS011;51319;52.162;5.302;2023-10-08T00:03:17;37.90;;;7.63;;
43998;SDS011;51319;52.162;5.302;2023-10-08T00:05:44;25.50;;;6.93;;
43998;SDS011;51319;52.162;5.302;2023-10-08T00:08:12;29.67;;;7.57;;
43998;SDS011;51319;52.162;5.302;2023-10-08T00:10:43;27.90;;;7.35;;
43998;SDS011;51319;52.162;5.302;2023-10-08T00:13:11;33.85;;;7.47;;
43998;SDS011;51319;52.162;5.302;2023-10-08T00:15:39;26.38;;;7.28;;
43998;SDS011;51319;52.162;5.302;2023-10-08T00:18:16;31.52;;;7.82;;
43998;SDS011;51319;52.162;5.302;2023-10-08T00:20:45;36.55;;;7.80;;
43998;SDS011;51319;52.162;5.302;2023-10-08T00:23:35;33.92;;;7.82;;
43998;SDS011;51319;52.162;5.302;2023-10-08T00:26:08;33.97;;;7.50;;
43998;SDS011;51319;52.162;5.302;2023-10-08T00:28:35;30.95;;;7.22;;
43998;SDS011;51319;52.162;5.302;2023-10-08T00:31:02;23.55;;;7.00;;
43998;SDS011;51319;52.162;5.302;2023-10-08T00:33:37;31.70;;;7.75;;
43998;SDS011;51319;52.162;5.302;2023-10-08T00:36:06;34.03;;;8.55;;
43998;SDS011;51319;52.162;5.302;2023-10-08T00:38:45;33.38;;;7.38;;
43998;SDS011;51319;52.162;5.302;2023-10-08T00:41:26;33.77;;;8.63;;
43998;SDS011;51319;52.162;5.302;2023-10-08T00:43:59;26.15;;;6.85;;
43998;SDS011;51319;52.162;5.302;2023-10-08T00:46:27;30.08;;;7.57;;
43998;SDS011;51319;52.162;5.302;2023-10-08T00:51:46;33.85;;;7.25;;
43998;SDS011;51319;52.162;5.302;2023-10-08T00:54:14;27.13;;;6.88;;
43998;SDS011;51319;52.162;5.302;2023-10-08T00:56:46;29.00;;;7.57;;
43998;SDS011;51319;52.162;5.302;2023-10-08T00:59:19;33.85;;;7.10;;
43998;SDS011;51319;52.162;5.302;2023-10-08T01:01:50;31.27;;;7.13;;
43998;SDS011;51319;52.162;5.302;2023-10-08T01:04:18;35.13;;;8.43;;
43998;SDS011;51319;52.162;5.302;2023-10-08T01:07:02;32.40;;;7.63;;
43998;SDS011;51319;52.162;5.302;2023-10-08T01:09:39;32.92;;;7.70;;
43998;SDS011;51319;52.162;5.302;2023-10-08T01:12:16;29.27;;;8.02;;
43998;SDS011;51319;52.162;5.302;2023-10-08T01:14:47;24.15;;;7.45;;
43998;SDS011;51319;52.162;5.302;2023-10-08T01:17:23;32.75;;;6.97;;
43998;SDS011;51319;52.162;5.302;2023-10-08T01:19:52;30.17;;;7.15;;
43998;SDS011;51319;52.162;5.302;2023-10-08T01:22:42;31.45;;;7.30;;
43998;SDS011;51319;52.162;5.302;2023-10-08T01:25:09;30.50;;;7.72;;
43998;SDS011;51319;52.162;5.302;2023-10-08T01:27:37;30.95;;;8.02;;
43998;SDS011;51319;52.162;5.302;2023-10-08T01:30:04;32.90;;;7.30;;
43998;SDS011;51319;52.162;5.302;2023-10-08T01:32:44;23.10;;;7.03;;
43998;SDS011;51319;52.162;5.302;2023-10-08T01:35:12;29.20;;;7.90;;
43998;SDS011;51319;52.162;5.302;2023-10-08T01:37:50;40.17;;;7.13;;
43998;SDS011;51319;52.162;5.302;2023-10-08T01:40:17;28.83;;;7.63;;
43998;SDS011;51319;52.162;5.302;2023-10-08T01:42:50;26.05;;;7.40;;
43998;SDS011;51319;52.162;5.302;2023-10-08T01:45:20;33.55;;;6.70;;
43998;SDS011;51319;52.162;5.302;2023-10-08T01:47:51;26.33;;;6.77;;
43998;SDS011;51319;52.162;5.302;2023-10-08T01:50:19;31.58;;;8.15;;
43998;SDS011;51319;52.162;5.302;2023-10-08T01:52:48;33.25;;;7.18;;
43998;SDS011;51319;52.162;5.302;2023-10-08T01:55:17;31.95;;;7.50;;
43998;SDS011;51319;52.162;5.302;2023-10-08T01:57:45;34.03;;;8.35;;
43998;SDS011;51319;52.162;5.302;2023-10-08T02:00:13;37.15;;;8.05;;
43998;SDS011;51319;52.162;5.302;2023-10-08T02:02:41;33.80;;;7.95;;
43998;SDS011;51319;52.162;5.302;2023-10-08T02:05:08;31.25;;;8.32;;
43998;SDS011;51319;52.162;5.302;2023-10-08T02:07:36;39.78;;;8.13;;
43998;SDS011;51319;52.162;5.302;2023-10-08T02:10:03;31.40;;;8.15;;
43998;SDS011;51319;52.162;5.302;2023-10-08T02:12:31;40.88;;;8.88;;
43998;SDS011;51319;52.162;5.302;2023-10-08T02:14:58;35.45;;;7.70;;
43998;SDS011;51319;52.162;5.302;2023-10-08T02:17:29;35.42;;;8.50;;
43998;SDS011;51319;52.162;5.302;2023-10-08T02:19:56;32.53;;;7.30;;
43998;SDS011;51319;52.162;5.302;2023-10-08T02:22:23;33.83;;;7.43;;
43998;SDS011;51319;52.162;5.302;2023-10-08T02:24:50;37.90;;;9.73;;
43998;SDS011;51319;52.162;5.302;2023-10-08T02:27:19;31.80;;;8.05;;
43998;SDS011;51319;52.162;5.302;2023-10-08T02:29:46;45.20;;;8.52;;
43998;SDS011;51319;52.162;5.302;2023-10-08T02:32:13;37.60;;;8.15;;
43998;SDS011;51319;52.162;5.302;2023-10-08T02:34:40;34.60;;;8.02;;
43998;SDS011;51319;52.162;5.302;2023-10-08T02:37:07;39.80;;;9.20;;
43998;SDS011;51319;52.162;5.302;2023-10-08T02:39:34;34.78;;;8.52;;
43998;SDS011;51319;52.162;5.302;2023-10-08T02:42:01;26.58;;;7.45;;
43998;SDS011;51319;52.162;5.302;2023-10-08T02:44:28;32.63;;;8.63;;
43998;SDS011;51319;52.162;5.302;2023-10-08T02:46:57;31.67;;;8.18;;
43998;SDS011;51319;52.162;5.302;2023-10-08T02:49:25;34.78;;;8.07;;
43998;SDS011;51319;52.162;5.302;2023-10-08T02:51:56;30.17;;;8.07;;
43998;SDS011;51319;52.162;5.302;2023-10-08T02:54:25;32.58;;;8.32;;
43998;SDS011;51319;52.162;5.302;2023-10-08T02:57:02;32.55;;;8.35;;
43998;SDS011;51319;52.162;5.302;2023-10-08T02:59:31;36.03;;;8.32;;
43998;SDS011;51319;52.162;5.302;2023-10-08T03:02:10;34.55;;;8.90;;
43998;SDS011;51319;52.162;5.302;2023-10-08T03:04:49;30.27;;;7.75;;
43998;SDS011;51319;52.162;5.302;2023-10-08T03:07:19;26.25;;;7.13;;
43998;SDS011;51319;52.162;5.302;2023-10-08T03:09:59;33.08;;;7.85;;
43998;SDS011;51319;52.162;5.302;2023-10-08T03:12:33;35.17;;;8.50;;
43998;SDS011;51319;52.162;5.302;2023-10-08T03:15:01;28.33;;;7.63;;
43998;SDS011;51319;52.162;5.302;2023-10-08T03:17:48;32.97;;;8.10;;
43998;SDS011;51319;52.162;5.302;2023-10-08T03:20:15;24.52;;;7.97;;
43998;SDS011;51319;52.162;5.302;2023-10-08T03:23:02;34.15;;;8.05;;
43998;SDS011;51319;52.162;5.302;2023-10-08T03:25:40;29.83;;;8.25;;
43998;SDS011;51319;52.162;5.302;2023-10-08T03:28:12;34.63;;;8.63;;
43998;SDS011;51319;52.162;5.302;2023-10-08T03:30:42;28.10;;;7.28;;
43998;SDS011;51319;52.162;5.302;2023-10-08T03:33:22;24.17;;;7.78;;
43998;SDS011;51319;52.162;5.302;2023-10-08T03:35:50;31.83;;;7.78;;
43998;SDS011;51319;52.162;5.302;2023-10-08T03:38:22;32.97;;;8.55;;
43998;SDS011;51319;52.162;5.302;2023-10-08T03:41:10;36.10;;;7.75;;
43998;SDS011;51319;52.162;5.302;2023-10-08T03:43:43;32.95;;;8.43;;
43998;SDS011;51319;52.162;5.302;2023-10-08T03:46:20;32.28;;;9.77;;
43998;SDS011;51319;52.162;5.302;2023-10-08T03:48:49;36.40;;;8.68;;
43998;SDS011;51319;52.162;5.302;2023-10-08T03:51:21;39.83;;;10.55;;
43998;SDS011;51319;52.162;5.302;2023-10-08T03:53:48;34.72;;;10.05;;
43998;SDS011;51319;52.162;5.302;2023-10-08T03:56:38;44.75;;;10.98;;
43998;SDS011;51319;52.162;5.302;2023-10-08T03:59:07;41.83;;;11.20;;
43998;SDS011;51319;52.162;5.302;2023-10-08T04:01:44;31.92;;;10.50;;
43998;SDS011;51319;52.162;5.302;2023-10-08T04:04:11;38.40;;;10.90;;
43998;SDS011;51319;52.162;5.302;2023-10-08T04:06:41;39.15;;;10.88;;
43998;SDS011;51319;52.162;5.302;2023-10-08T04:09:20;47.13;;;9.00;;
43998;SDS011;51319;52.162;5.302;2023-10-08T04:11:47;30.58;;;6.68;;
43998;SDS011;51319;52.162;5.302;2023-10-08T04:14:25;28.85;;;6.43;;
43998;SDS011;51319;52.162;5.302;2023-10-08T04:16:54;21.45;;;5.47;;
43998;SDS011;51319;52.162;5.302;2023-10-08T04:19:21;20.98;;;5.30;;
43998;SDS011;51319;52.162;5.302;2023-10-08T04:21:56;19.75;;;4.60;;
43998;SDS011;51319;52.162;5.302;2023-10-08T04:24:23;15.02;;;4.45;;
43998;SDS011;51319;52.162;5.302;2023-10-08T04:26:55;18.30;;;4.60;;
43998;SDS011;51319;52.162;5.302;2023-10-08T04:29:24;25.55;;;5.80;;
43998;SDS011;51319;52.162;5.302;2023-10-08T04:31:52;18.13;;;4.30;;
43998;SDS011;51319;52.162;5.302;2023-10-08T04:34:34;17.48;;;3.60;;
43998;SDS011;51319;52.162;5.302;2023-10-08T04:37:02;10.98;;;3.50;;
43998;SDS011;51319;52.162;5.302;2023-10-08T04:39:30;10.35;;;3.67;;
43998;SDS011;51319;52.162;5.302;2023-10-08T04:42:01;11.88;;;3.38;;
43998;SDS011;51319;52.162;5.302;2023-10-08T04:44:39;17.05;;;3.83;;
43998;SDS011;51319;52.162;5.302;2023-10-08T04:47:10;19.83;;;4.38;;
43998;SDS011;51319;52.162;5.302;2023-10-08T04:49:57;17.63;;;4.22;;
43998;SDS011;51319;52.162;5.302;2023-10-08T04:52:24;13.57;;;3.85;;
43998;SDS011;51319;52.162;5.302;2023-10-08T04:54:54;11.60;;;3.92;;
43998;SDS011;51319;52.162;5.302;2023-10-08T04:57:21;15.25;;;3.58;;
43998;SDS011;51319;52.162;5.302;2023-10-08T04:59:49;18.50;;;3.83;;
43998;SDS011;51319;52.162;5.302;2023-10-08T05:02:17;15.40;;;3.80;;
43998;SDS011;51319;52.162;5.302;2023-10-08T05:05:16;12.45;;;3.78;;
43998;SDS011;51319;52.162;5.302;2023-10-08T05:07:43;10.95;;;3.60;;
43998;SDS011;51319;52.162;5.302;2023-10-08T05:10:13;16.20;;;4.38;;
43998;SDS011;51319;52.162;5.302;2023-10-08T05:12:50;10.00;;;4.30;;
43998;SDS011;51319;52.162;5.302;2023-10-08T05:15:27;10.40;;;4.15;;
43998;SDS011;51319;52.162;5.302;2023-10-08T05:18:00;19.10;;;4.85;;
43998;SDS011;51319;52.162;5.302;2023-10-08T05:20:47;18.23;;;4.70;;
43998;SDS011;51319;52.162;5.302;2023-10-08T05:23:17;10.03;;;4.47;;
43998;SDS011;51319;52.162;5.302;2023-10-08T05:25:52;17.17;;;4.43;;
43998;SDS011;51319;52.162;5.302;2023-10-08T05:28:36;13.75;;;3.80;;
43998;SDS011;51319;52.162;5.302;2023-10-08T05:31:16;14.15;;;4.07;;
43998;SDS011;51319;52.162;5.302;2023-10-08T05:33:43;17.15;;;4.70;;
43998;SDS011;51319;52.162;5.302;2023-10-08T05:36:28;19.40;;;4.13;;
43998;SDS011;51319;52.162;5.302;2023-10-08T05:39:18;20.98;;;4.53;;
43998;SDS011;51319;52.162;5.302;2023-10-08T05:41:51;18.55;;;4.43;;
43998;SDS011;51319;52.162;5.302;2023-10-08T05:44:21;12.43;;;3.45;;
43998;SDS011;51319;52.162;5.302;2023-10-08T05:46:48;19.00;;;3.80;;
43998;SDS011;51319;52.162;5.302;2023-10-08T05:49:22;13.65;;;3.88;;
43998;SDS011;51319;52.162;5.302;2023-10-08T05:51:58;13.88;;;3.50;;
43998;SDS011;51319;52.162;5.302;2023-10-08T05:54:25;11.57;;;3.45;;
43998;SDS011;51319;52.162;5.302;2023-10-08T05:57:04;14.68;;;3.47;;
43998;SDS011;51319;52.162;5.302;2023-10-08T05:59:43;13.95;;;3.78;;
43998;SDS011;51319;52.162;5.302;2023-10-08T06:07:43;13.82;;;3.88;;
43998;SDS011;51319;52.162;5.302;2023-10-08T06:10:26;14.10;;;4.00;;
43998;SDS011;51319;52.162;5.302;2023-10-08T06:13:02;14.50;;;3.83;;
43998;SDS011;51319;52.162;5.302;2023-10-08T06:15:40;14.20;;;2.90;;
43998;SDS011;51319;52.162;5.302;2023-10-08T06:18:15;8.30;;;3.25;;
43998;SDS011;51319;52.162;5.302;2023-10-08T06:20:48;9.18;;;2.47;;
43998;SDS011;51319;52.162;5.302;2023-10-08T06:23:33;10.52;;;2.90;;
43998;SDS011;51319;52.162;5.302;2023-10-08T06:26:03;15.30;;;3.20;;
43998;SDS011;51319;52.162;5.302;2023-10-08T06:28:51;10.52;;;3.05;;
43998;SDS011;51319;52.162;5.302;2023-10-08T06:31:24;8.07;;;2.63;;
43998;SDS011;51319;52.162;5.302;2023-10-08T06:33:54;14.33;;;3.10;;
43998;SDS011;51319;52.162;5.302;2023-10-08T06:36:21;6.15;;;2.58;;
43998;SDS011;51319;52.162;5.302;2023-10-08T06:38:50;14.98;;;6.72;;
43998;SDS011;51319;52.162;5.302;2023-10-08T06:41:18;10.15;;;3.30;;
43998;SDS011;51319;52.162;5.302;2023-10-08T06:44:05;14.55;;;2.58;;
43998;SDS011;51319;52.162;5.302;2023-10-08T06:46:32;18.63;;;2.65;;
43998;SDS011;51319;52.162;5.302;2023-10-08T06:49:02;10.50;;;2.42;;
43998;SDS011;51319;52.162;5.302;2023-10-08T06:51:31;6.63;;;1.80;;
43998;SDS011;51319;52.162;5.302;2023-10-08T06:53:59;6.53;;;1.92;;
43998;SDS011;51319;52.162;5.302;2023-10-08T06:56:29;3.60;;;1.67;;
43998;SDS011;51319;52.162;5.302;2023-10-08T06:58:58;8.38;;;2.22;;
43998;SDS011;51319;52.162;5.302;2023-10-08T07:01:26;5.00;;;2.10;;
43998;SDS011;51319;52.162;5.302;2023-10-08T07:03:55;3.95;;;1.67;;
43998;SDS011;51319;52.162;5.302;2023-10-08T07:06:30;10.18;;;2.20;;
43998;SDS011;51319;52.162;5.302;2023-10-08T07:09:00;3.25;;;1.40;;
43998;SDS011;51319;52.162;5.302;2023-10-08T07:11:32;3.83;;;1.73;;
43998;SDS011;51319;52.162;5.302;2023-10-08T07:14:06;2.78;;;1.55;;
43998;SDS011;51319;52.162;5.302;2023-10-08T07:16:33;5.13;;;1.98;;
43998;SDS011;51319;52.162;5.302;2023-10-08T07:19:01;3.47;;;1.52;;
43998;SDS011;51319;52.162;5.302;2023-10-08T07:21:29;3.63;;;1.40;;
43998;SDS011;51319;52.162;5.302;2023-10-08T07:24:04;4.95;;;1.70;;
43998;SDS011;51319;52.162;5.302;2023-10-08T07:26:36;7.15;;;1.70;;
43998;SDS011;51319;52.162;5.302;2023-10-08T07:29:04;3.17;;;1.80;;
43998;SDS011;51319;52.162;5.302;2023-10-08T07:31:34;10.63;;;2.00;;
43998;SDS011;51319;52.162;5.302;2023-10-08T07:34:03;2.10;;;1.30;;
43998;SDS011;51319;52.162;5.302;2023-10-08T07:36:44;1.70;;;1.58;;
43998;SDS011;51319;52.162;5.302;2023-10-08T07:39:13;2.80;;;1.85;;
43998;SDS011;51319;52.162;5.302;2023-10-08T07:42:01;2.75;;;1.60;;
43998;SDS011;51319;52.162;5.302;2023-10-08T07:44:32;3.08;;;1.90;;
43998;SDS011;51319;52.162;5.302;2023-10-08T07:47:02;2.55;;;1.80;;
43998;SDS011;51319;52.162;5.302;2023-10-08T07:49:31;3.33;;;1.73;;
43998;SDS011;51319;52.162;5.302;2023-10-08T07:51:58;3.42;;;1.80;;
43998;SDS011;51319;52.162;5.302;2023-10-08T07:54:26;4.53;;;2.30;;
43998;SDS011;51319;52.162;5.302;2023-10-08T07:56:56;3.67;;;2.40;;
43998;SDS011;51319;52.162;5.302;2023-10-08T07:59:36;3.03;;;1.90;;
43998;SDS011;51319;52.162;5.302;2023-10-08T08:02:14;4.38;;;2.40;;
43998;SDS011;51319;52.162;5.302;2023-10-08T08:04:52;2.45;;;1.80;;
43998;SDS011;51319;52.162;5.302;2023-10-08T08:07:20;1.95;;;1.85;;
43998;SDS011;51319;52.162;5.302;2023-10-08T08:09:50;2.78;;;2.25;;
43998;SDS011;51319;52.162;5.302;2023-10-08T08:12:25;2.25;;;1.80;;
43998;SDS011;51319;52.162;5.302;2023-10-08T08:14:55;3.30;;;2.40;;
43998;SDS011;51319;52.162;5.302;2023-10-08T08:17:22;4.75;;;2.42;;
43998;SDS011;51319;52.162;5.302;2023-10-08T08:19:50;3.10;;;2.00;;
43998;SDS011;51319;52.162;5.302;2023-10-08T08:22:19;4.68;;;2.28;;
43998;SDS011;51319;52.162;5.302;2023-10-08T08:27:23;3.95;;;2.30;;
43998;SDS011;51319;52.162;5.302;2023-10-08T08:29:51;3.15;;;1.95;;
43998;SDS011;51319;52.162;5.302;2023-10-08T08:32:22;2.75;;;2.22;;
43998;SDS011;51319;52.162;5.302;2023-10-08T08:34:50;2.75;;;2.40;;
43998;SDS011;51319;52.162;5.302;2023-10-08T08:37:17;5.05;;;2.92;;
43998;SDS011;51319;52.162;5.302;2023-10-08T08:39:44;3.20;;;2.05;;
43998;SDS011;51319;52.162;5.302;2023-10-08T08:42:12;2.90;;;1.92;;
43998;SDS011;51319;52.162;5.302;2023-10-08T08:44:41;3.33;;;1.85;;
43998;SDS011;51319;52.162;5.302;2023-10-08T08:47:14;5.32;;;1.90;;
43998;SDS011;51319;52.162;5.302;2023-10-08T08:49:45;4.10;;;2.15;;
43998;SDS011;51319;52.162;5.302;2023-10-08T08:52:14;5.93;;;2.53;;
43998;SDS011;51319;52.162;5.302;2023-10-08T08:54:41;7.00;;;2.45;;
43998;SDS011;51319;52.162;5.302;2023-10-08T08:57:09;4.88;;;2.00;;
43998;SDS011;51319;52.162;5.302;2023-10-08T08:59:44;3.30;;;2.53;;
43998;SDS011;51319;52.162;5.302;2023-10-08T09:02:19;2.53;;;1.90;;
43998;SDS011;51319;52.162;5.302;2023-10-08T09:04:47;4.53;;;2.00;;
43998;SDS011;51319;52.162;5.302;2023-10-08T09:07:19;5.57;;;2.40;;
43998;SDS011;51319;52.162;5.302;2023-10-08T09:09:49;3.50;;;2.22;;
43998;SDS011;51319;52.162;5.302;2023-10-08T09:12:17;4.80;;;2.28;;
43998;SDS011;51319;52.162;5.302;2023-10-08T09:14:44;2.85;;;1.55;;
43998;SDS011;51319;52.162;5.302;2023-10-08T09:17:13;2.50;;;1.98;;
43998;SDS011;51319;52.162;5.302;2023-10-08T09:19:41;2.97;;;2.05;;
43998;SDS011;51319;52.162;5.302;2023-10-08T09:22:09;6.10;;;1.80;;
43998;SDS011;51319;52.162;5.302;2023-10-08T09:24:38;2.60;;;1.98;;
43998;SDS011;51319;52.162;5.302;2023-10-08T09:27:09;8.70;;;2.03;;
43998;SDS011;51319;52.162;5.302;2023-10-08T09:29:41;6.38;;;2.00;;
43998;SDS011;51319;52.162;5.302;2023-10-08T09:32:09;3.58;;;2.10;;
43998;SDS011;51319;52.162;5.302;2023-10-08T09:34:37;4.38;;;2.10;;
43998;SDS011;51319;52.162;5.302;2023-10-08T09:37:05;3.92;;;2.10;;
43998;SDS011;51319;52.162;5.302;2023-10-08T09:39:34;5.28;;;2.10;;
43998;SDS011;51319;52.162;5.302;2023-10-08T09:42:02;4.25;;;2.17;;
43998;SDS011;51319;52.162;5.302;2023-10-08T09:44:33;4.53;;;2.05;;
43998;SDS011;51319;52.162;5.302;2023-10-08T09:47:04;4.13;;;1.92;;
43998;SDS011;51319;52.162;5.302;2023-10-08T09:49:38;4.00;;;2.00;;
43998;SDS011;51319;52.162;5.302;2023-10-08T09:55:37;3.88;;;2.67;;
43998;SDS011;51319;52.162;5.302;2023-10-08T09:58:15;2.83;;;2.42;;
43998;SDS011;51319;52.162;5.302;2023-10-08T10:00:43;3.83;;;2.88;;
43998;SDS011;51319;52.162;5.302;2023-10-08T10:03:11;5.15;;;2.30;;
43998;SDS011;51319;52.162;5.302;2023-10-08T10:05:41;6.47;;;2.40;;
43998;SDS011;51319;52.162;5.302;2023-10-08T10:08:09;5.97;;;2.38;;
43998;SDS011;51319;52.162;5.302;2023-10-08T10:10:37;8.80;;;2.53;;
43998;SDS011;51319;52.162;5.302;2023-10-08T10:13:05;3.47;;;2.30;;
43998;SDS011;51319;52.162;5.302;2023-10-08T10:15:39;2.72;;;2.05;;
43998;SDS011;51319;52.162;5.302;2023-10-08T10:18:16;3.55;;;2.55;;
43998;SDS011;51319;52.162;5.302;2023-10-08T10:23:40;4.38;;;2.47;;
43998;SDS011;51319;52.162;5.302;2023-10-08T10:26:22;6.65;;;2.47;;
43998;SDS011;51319;52.162;5.302;2023-10-08T10:31:46;8.90;;;3.13;;
43998;SDS011;51319;52.162;5.302;2023-10-08T10:34:15;5.32;;;3.30;;
43998;SDS011;51319;52.162;5.302;2023-10-08T10:36:45;4.13;;;2.83;;
43998;SDS011;51319;52.162;5.302;2023-10-08T10:39:16;5.15;;;2.95;;
43998;SDS011;51319;52.162;5.302;2023-10-08T10:41:55;5.32;;;2.88;;
43998;SDS011;51319;52.162;5.302;2023-10-08T10:44:30;7.20;;;2.70;;
43998;SDS011;51319;52.162;5.302;2023-10-08T10:46:59;3.22;;;2.60;;
43998;SDS011;51319;52.162;5.302;2023-10-08T10:49:47;3.65;;;2.80;;
43998;SDS011;51319;52.162;5.302;2023-10-08T10:52:41;4.20;;;2.58;;
43998;SDS011;51319;52.162;5.302;2023-10-08T10:55:16;5.40;;;2.50;;
43998;SDS011;51319;52.162;5.302;2023-10-08T10:57:54;4.63;;;3.22;;
43998;SDS011;51319;52.162;5.302;2023-10-08T11:00:24;4.05;;;3.33;;
43998;SDS011;51319;52.162;5.302;2023-10-08T11:02:59;5.88;;;2.90;;
43998;SDS011;51319;52.162;5.302;2023-10-08T11:05:33;7.32;;;3.30;;
43998;SDS011;51319;52.162;5.302;2023-10-08T11:08:04;6.53;;;3.08;;
43998;SDS011;51319;52.162;5.302;2023-10-08T11:10:37;7.05;;;3.63;;
43998;SDS011;51319;52.162;5.302;2023-10-08T11:13:05;4.00;;;3.20;;
43998;SDS011;51319;52.162;5.302;2023-10-08T11:15:45;4.35;;;3.25;;
43998;SDS011;51319;52.162;5.302;2023-10-08T11:18:19;4.47;;;3.80;;
43998;SDS011;51319;52.162;5.302;2023-10-08T11:20:48;3.45;;;3.15;;
43998;SDS011;51319;52.162;5.302;2023-10-08T11:23:31;3.40;;;3.00;;
43998;SDS011;51319;52.162;5.302;2023-10-08T11:26:00;4.00;;;3.25;;
43998;SDS011;51319;52.162;5.302;2023-10-08T11:28:32;3.88;;;3.42;;
43998;SDS011;51319;52.162;5.302;2023-10-08T11:31:12;5.30;;;3.90;;
43998;SDS011;51319;52.162;5.302;2023-10-08T11:33:46;4.10;;;3.50;;
43998;SDS011;51319;52.162;5.302;2023-10-08T11:36:21;4.05;;;3.65;;
43998;SDS011;51319;52.162;5.302;2023-10-08T11:38:55;6.05;;;4.35;;
43998;SDS011;51319;52.162;5.302;2023-10-08T11:41:27;6.25;;;4.05;;
43998;SDS011;51319;52.162;5.302;2023-10-08T11:44:10;8.43;;;4.35;;
43998;SDS011;51319;52.162;5.302;2023-10-08T11:46:40;8.63;;;4.65;;
43998;SDS011;51319;52.162;5.302;2023-10-08T11:49:07;5.28;;;4.47;;
43998;SDS011;51319;52.162;5.302;2023-10-08T11:51:44;6.10;;;4.38;;
43998;SDS011;51319;52.162;5.302;2023-10-08T11:54:12;5.20;;;4.70;;
43998;SDS011;51319;52.162;5.302;2023-10-08T11:56:41;4.47;;;3.97;;
43998;SDS011;51319;52.162;5.302;2023-10-08T11:59:08;11.70;;;5.15;;
43998;SDS011;51319;52.162;5.302;2023-10-08T12:01:35;4.82;;;4.28;;
43998;SDS011;51319;52.162;5.302;2023-10-08T12:04:04;5.22;;;4.22;;
43998;SDS011;51319;52.162;5.302;2023-10-08T12:06:40;5.93;;;4.03;;
43998;SDS011;51319;52.162;5.302;2023-10-08T12:09:13;6.20;;;4.85;;
43998;SDS011;51319;52.162;5.302;2023-10-08T12:11:41;7.30;;;4.45;;
43998;SDS011;51319;52.162;5.302;2023-10-08T12:14:09;7.28;;;4.78;;
43998;SDS011;51319;52.162;5.302;2023-10-08T12:16:37;5.95;;;5.10;;
43998;SDS011;51319;52.162;5.302;2023-10-08T12:19:06;6.90;;;4.90;;
43998;SDS011;51319;52.162;5.302;2023-10-08T12:21:43;5.88;;;4.38;;
43998;SDS011;51319;52.162;5.302;2023-10-08T12:24:14;7.05;;;4.30;;
43998;SDS011;51319;52.162;5.302;2023-10-08T12:26:41;5.75;;;3.88;;
43998;SDS011;51319;52.162;5.302;2023-10-08T12:29:13;6.13;;;3.65;;
43998;SDS011;51319;52.162;5.302;2023-10-08T12:31:40;7.55;;;3.35;;
43998;SDS011;51319;52.162;5.302;2023-10-08T12:34:07;6.90;;;4.45;;
43998;SDS011;51319;52.162;5.302;2023-10-08T12:36:38;6.18;;;3.55;;
43998;SDS011;51319;52.162;5.302;2023-10-08T12:39:05;4.82;;;3.03;;
43998;SDS011;51319;52.162;5.302;2023-10-08T12:41:44;5.13;;;2.85;;
43998;SDS011;51319;52.162;5.302;2023-10-08T12:44:11;5.10;;;2.80;;
43998;SDS011;51319;52.162;5.302;2023-10-08T12:46:39;9.82;;;2.65;;
43998;SDS011;51319;52.162;5.302;2023-10-08T12:49:09;3.65;;;2.90;;
43998;SDS011;51319;52.162;5.302;2023-10-08T12:51:36;6.10;;;3.90;;
43998;SDS011;51319;52.162;5.302;2023-10-08T12:54:08;10.55;;;3.05;;
43998;SDS011;51319;52.162;5.302;2023-10-08T12:56:38;8.07;;;2.70;;
43998;SDS011;51319;52.162;5.302;2023-10-08T12:59:12;10.18;;;2.60;;
43998;SDS011;51319;52.162;5.302;2023-10-08T13:01:47;5.57;;;2.20;;
43998;SDS011;51319;52.162;5.302;2023-10-08T13:04:18;4.78;;;2.55;;
43998;SDS011;51319;52.162;5.302;2023-10-08T13:06:55;4.82;;;2.40;;
43998;SDS011;51319;52.162;5.302;2023-10-08T13:09:29;5.88;;;2.38;;
43998;SDS011;51319;52.162;5.302;2023-10-08T13:12:03;5.60;;;2.60;;
43998;SDS011;51319;52.162;5.302;2023-10-08T13:14:31;7.70;;;2.47;;
43998;SDS011;51319;52.162;5.302;2023-10-08T13:17:02;6.13;;;2.13;;
43998;SDS011;51319;52.162;5.302;2023-10-08T13:19:29;7.88;;;2.40;;
43998;SDS011;51319;52.162;5.302;2023-10-08T13:22:00;4.80;;;2.03;;
43998;SDS011;51319;52.162;5.302;2023-10-08T13:24:27;4.45;;;1.90;;
43998;SDS011;51319;52.162;5.302;2023-10-08T13:26:55;3.13;;;1.92;;
43998;SDS011;51319;52.162;5.302;2023-10-08T13:29:25;5.10;;;2.03;;
43998;SDS011;51319;52.162;5.302;2023-10-08T13:31:59;3.25;;;1.95;;
43998;SDS011;51319;52.162;5.302;2023-10-08T13:34:27;8.80;;;2.30;;
43998;SDS011;51319;52.162;5.302;2023-10-08T13:36:54;6.45;;;2.42;;
43998;SDS011;51319;52.162;5.302;2023-10-08T13:39:22;6.32;;;2.20;;
43998;SDS011;51319;52.162;5.302;2023-10-08T13:41:49;6.35;;;2.45;;
43998;SDS011;51319;52.162;5.302;2023-10-08T13:44:19;6.35;;;2.20;;
43998;SDS011;51319;52.162;5.302;2023-10-08T13:46:56;8.55;;;4.63;;
43998;SDS011;51319;52.162;5.302;2023-10-08T13:49:25;5.45;;;2.53;;
43998;SDS011;51319;52.162;5.302;2023-10-08T13:52:01;4.15;;;2.78;;
43998;SDS011;51319;52.162;5.302;2023-10-08T13:54:28;3.58;;;1.80;;
43998;SDS011;51319;52.162;5.302;2023-10-08T13:56:56;3.97;;;1.95;;
43998;SDS011;51319;52.162;5.302;2023-10-08T13:59:25;6.00;;;2.10;;
43998;SDS011;51319;52.162;5.302;2023-10-08T14:01:52;7.40;;;2.20;;
43998;SDS011;51319;52.162;5.302;2023-10-08T14:04:21;4.63;;;1.92;;
43998;SDS011;51319;52.162;5.302;2023-10-08T14:06:57;10.82;;;1.73;;
43998;SDS011;51319;52.162;5.302;2023-10-08T14:09:25;4.20;;;2.05;;
43998;SDS011;51319;52.162;5.302;2023-10-08T14:11:59;6.90;;;2.20;;
43998;SDS011;51319;52.162;5.302;2023-10-08T14:14:27;6.68;;;2.22;;
43998;SDS011;51319;52.162;5.302;2023-10-08T14:17:00;15.52;;;8.57;;
43998;SDS011;51319;52.162;5.302;2023-10-08T14:19:41;6.20;;;2.40;;
43998;SDS011;51319;52.162;5.302;2023-10-08T14:22:26;7.35;;;2.38;;
43998;SDS011;51319;52.162;5.302;2023-10-08T14:24:53;5.70;;;2.13;;
43998;SDS011;51319;52.162;5.302;2023-10-08T14:27:26;5.68;;;2.50;;
43998;SDS011;51319;52.162;5.302;2023-10-08T14:35:25;5.50;;;2.13;;
43998;SDS011;51319;52.162;5.302;2023-10-08T14:38:11;3.60;;;2.15;;
43998;SDS011;51319;52.162;5.302;2023-10-08T14:40:57;6.07;;;2.33;;
43998;SDS011;51319;52.162;5.302;2023-10-08T14:43:42;8.75;;;2.50;;
43998;SDS011;51319;52.162;5.302;2023-10-08T14:46:09;6.43;;;2.83;;
43998;SDS011;51319;52.162;5.302;2023-10-08T14:48:38;8.25;;;2.20;;
43998;SDS011;51319;52.162;5.302;2023-10-08T14:51:07;8.80;;;4.90;;
43998;SDS011;51319;52.162;5.302;2023-10-08T14:53:34;5.15;;;2.35;;
43998;SDS011;51319;52.162;5.302;2023-10-08T14:56:04;3.25;;;2.13;;
43998;SDS011;51319;52.162;5.302;2023-10-08T14:58:31;7.55;;;3.00;;
43998;SDS011;51319;52.162;5.302;2023-10-08T15:00:59;7.25;;;3.95;;
43998;SDS011;51319;52.162;5.302;2023-10-08T15:03:26;8.63;;;4.13;;
43998;SDS011;51319;52.162;5.302;2023-10-08T15:05:53;6.82;;;2.72;;
43998;SDS011;51319;52.162;5.302;2023-10-08T15:08:21;7.82;;;2.55;;
43998;SDS011;51319;52.162;5.302;2023-10-08T15:10:50;8.45;;;3.15;;
43998;SDS011;51319;52.162;5.302;2023-10-08T15:13:17;6.50;;;3.00;;
43998;SDS011;51319;52.162;5.302;2023-10-08T15:15:43;8.23;;;3.60;;
43998;SDS011;51319;52.162;5.302;2023-10-08T15:18:11;4.82;;;2.80;;
43998;SDS011;51319;52.162;5.302;2023-10-08T15:20:41;7.07;;;3.55;;
43998;SDS011;51319;52.162;5.302;2023-10-08T15:23:09;4.35;;;2.55;;
43998;SDS011;51319;52.162;5.302;2023-10-08T15:25:40;10.90;;;3.47;;
43998;SDS011;51319;52.162;5.302;2023-10-08T15:28:07;4.80;;;2.50;;
43998;SDS011;51319;52.162;5.302;2023-10-08T15:30:35;6.45;;;3.53;;
43998;SDS011;51319;52.162;5.302;2023-10-08T15:33:03;5.05;;;2.97;;